createdAt,value
2023-01-28T02:41:30.362Z,26.50
2023-01-28T02:44:01.407Z,26.80
2023-01-28T02:46:48.166Z,26.70
2023-01-28T02:49:40.368Z,27.40
2023-01-28T02:52:42.324Z,26.90
2023-01-28T02:55:25.338Z,27.30
2023-01-28T03:01:05.744Z,25.10
2023-01-28T03:04:01.758Z,24.90
2023-01-28T03:06:40.083Z,26.50
2023-01-28T03:09:28.325Z,28.00
2023-01-28T03:12:29.891Z,26.50
2023-01-28T03:15:19.689Z,23.60
2023-01-28T03:18:23.871Z,24.40
2023-01-28T03:21:26.831Z,25.40
2023-01-28T03:24:45.259Z,24.30
2023-01-28T03:27:37.306Z,26.70
2023-01-28T03:30:30.684Z,25.60
2023-01-28T03:33:22.660Z,24.60
2023-01-28T03:36:09.435Z,26.30
2023-01-28T03:38:43.806Z,25.50
2023-01-28T03:41:21.061Z,26.10
2023-01-28T03:43:49.977Z,26.20
2023-01-28T03:46:18.600Z,27.00
2023-01-28T03:48:46.604Z,27.70
2023-01-28T03:51:15.583Z,30.60
2023-01-28T03:53:43.592Z,27.70
2023-01-28T03:56:18.693Z,29.10
2023-01-28T03:58:52.937Z,29.00
2023-01-28T04:01:21.482Z,26.90
2023-01-28T04:03:49.883Z,28.40
2023-01-28T04:06:31.094Z,28.50
2023-01-28T04:09:12.468Z,26.80
2023-01-28T04:11:49.016Z,28.20
2023-01-28T04:14:23.045Z,29.10
2023-01-28T04:17:08.852Z,27.90
2023-01-28T04:19:39.049Z,28.70
2023-01-28T04:22:10.469Z,28.00
2023-01-28T04:24:42.268Z,28.10
2023-01-28T04:27:10.244Z,28.70
2023-01-28T04:29:38.133Z,25.40
2023-01-28T04:32:29.543Z,24.10
2023-01-28T04:35:26.684Z,27.50
2023-01-28T04:38:09.069Z,25.90
2023-01-28T04:40:52.960Z,26.40
2023-01-28T04:43:33.829Z,24.30
2023-01-28T09:34:39.684Z,35.30
2023-01-28T09:37:06.498Z,32.00
2023-01-28T09:39:33.118Z,31.50
2023-01-28T09:42:17.706Z,33.60
2023-01-28T09:45:15.883Z,32.40
2023-01-28T09:47:46.659Z,37.60
2023-01-28T09:50:22.819Z,42.50
2023-01-28T09:52:50.140Z,42.90
2023-01-28T09:55:22.943Z,34.60
2023-01-28T09:57:53.092Z,35.90
2023-01-28T10:00:26.105Z,33.40
2023-01-28T10:03:30.779Z,35.50
2023-01-28T10:06:13.827Z,33.10
2023-01-28T10:08:50.017Z,32.30
2023-01-28T10:11:45.611Z,35.00
2023-01-28T10:14:18.142Z,42.50
2023-01-28T10:16:48.436Z,35.20
2023-01-28T10:19:55.382Z,33.50
2023-01-28T10:22:25.047Z,36.50
2023-01-28T10:24:57.670Z,31.50
2023-01-28T10:27:27.768Z,34.20
2023-01-28T10:29:54.775Z,41.50
2023-01-28T10:32:23.012Z,40.50
2023-01-28T10:34:51.268Z,41.20
2023-01-28T10:37:17.840Z,37.40
2023-01-28T10:39:46.831Z,36.70
2023-01-28T10:42:23.227Z,32.50
2023-01-28T10:44:49.744Z,33.40
2023-01-28T10:47:30.858Z,33.30
2023-01-28T10:49:59.110Z,34.50
2023-01-28T10:52:25.692Z,37.90
2023-01-28T10:54:59.622Z,38.90
2023-01-28T10:57:27.095Z,37.70
2023-01-28T10:59:53.605Z,35.30
2023-01-28T11:05:20.155Z,36.10
2023-01-28T11:07:50.055Z,38.60
2023-01-28T11:10:25.186Z,32.90
2023-01-28T11:12:56.113Z,36.10
2023-01-28T11:15:22.713Z,33.70
2023-01-28T11:17:53.309Z,35.80
2023-01-28T11:20:22.258Z,29.80
2023-01-28T11:22:49.767Z,28.80
2023-01-28T11:25:36.144Z,30.00
2023-01-28T11:28:05.389Z,28.80
2023-01-28T11:30:33.924Z,31.50
2023-01-28T11:33:21.055Z,28.20
2023-01-28T11:35:58.249Z,28.70
2023-01-28T11:38:25.490Z,27.90
2023-01-28T11:40:53.013Z,30.00
2023-01-28T11:43:32.184Z,31.40
2023-01-28T11:46:20.259Z,31.10
2023-01-28T11:48:49.981Z,27.80
2023-01-28T11:51:22.938Z,27.80
2023-01-28T11:53:55.408Z,28.70
2023-01-28T11:56:44.404Z,26.70
2023-01-28T11:59:42.177Z,29.30
2023-01-28T12:02:25.495Z,41.50
2023-01-28T12:05:23.295Z,36.40
2023-01-28T12:08:19.180Z,34.60
2023-01-28T12:11:08.376Z,31.70
2023-01-28T12:13:53.174Z,29.30
2023-01-28T12:16:44.386Z,39.30
2023-01-28T12:19:20.328Z,33.00
2023-01-28T12:22:15.704Z,31.50
2023-01-28T12:24:53.548Z,37.60
2023-01-28T12:27:33.100Z,39.70
2023-01-28T12:30:32.119Z,30.40
2023-01-28T12:33:20.732Z,29.80
2023-01-28T12:36:12.248Z,32.50
2023-01-28T12:39:02.941Z,35.30
2023-01-28T12:41:35.979Z,31.10
2023-01-28T12:44:03.652Z,43.80
2023-01-28T12:46:39.132Z,31.50
2023-01-28T12:49:16.412Z,46.00
2023-01-28T12:52:20.761Z,43.60
2023-01-28T12:54:59.481Z,36.30
2023-01-28T12:57:31.793Z,30.60
2023-01-28T13:00:23.867Z,31.20
2023-01-28T13:03:08.927Z,30.30
2023-01-28T13:05:41.519Z,31.40
2023-01-28T13:08:15.875Z,30.60
2023-01-28T13:10:44.070Z,29.50
2023-01-28T13:13:23.457Z,32.80
2023-01-28T13:15:50.308Z,30.20
2023-01-28T13:18:47.286Z,31.00
2023-01-28T13:21:32.430Z,28.90
2023-01-28T13:24:01.089Z,30.50
2023-01-28T13:26:29.162Z,30.60
2023-01-28T13:29:07.986Z,29.30
2023-01-28T13:31:39.529Z,31.10
2023-01-28T13:34:06.645Z,30.10
2023-01-28T13:36:39.582Z,34.80
2023-01-28T13:39:17.657Z,32.60
2023-01-28T13:41:49.592Z,37.70
2023-01-28T13:44:24.926Z,32.90
2023-01-28T13:47:12.202Z,34.50
2023-01-28T13:49:39.695Z,31.00
2023-01-28T13:52:14.772Z,34.80
2023-01-28T13:54:44.488Z,33.70
2023-01-28T13:57:24.193Z,52.30
2023-01-28T14:00:02.408Z,44.90
2023-01-28T14:03:07.885Z,40.90
2023-01-28T14:05:38.791Z,39.50
2023-01-28T14:08:33.043Z,37.80
2023-01-28T14:11:10.786Z,37.20
2023-01-28T18:31:07.487Z,181.50
2023-01-28T18:33:34.094Z,169.50
2023-01-28T18:36:18.068Z,169.70
2023-01-28T18:38:45.500Z,167.80
2023-01-28T18:41:11.937Z,156.10
2023-01-28T18:43:38.512Z,139.40
2023-01-28T18:46:16.342Z,147.70
2023-01-28T18:48:42.964Z,139.80
2023-01-28T18:51:27.641Z,177.40
2023-01-28T18:54:00.329Z,183.70
2023-01-28T18:56:27.676Z,380.50
2023-01-28T18:59:02.366Z,221.30
2023-01-28T19:01:32.739Z,176.40
2023-01-28T19:03:59.926Z,148.70
2023-01-28T19:06:27.631Z,139.20
2023-01-28T19:08:56.135Z,131.50
2023-01-28T21:17:21.637Z,36.60
2023-01-28T21:19:50.165Z,25.70
2023-01-28T21:22:18.014Z,25.80
2023-01-28T21:24:49.193Z,23.00
2023-01-28T21:27:17.304Z,25.00
2023-01-28T21:29:45.302Z,22.70
2023-01-28T21:32:15.863Z,27.20
2023-01-28T21:34:43.714Z,24.90
2023-01-28T21:37:11.672Z,25.90
2023-01-28T21:39:39.551Z,24.90
2023-01-28T21:42:07.528Z,29.00
2023-01-28T21:44:35.611Z,39.20
2023-01-28T21:47:03.398Z,28.00
2023-01-28T21:49:31.674Z,31.50
2023-01-28T21:51:59.829Z,31.00
2023-01-28T21:54:27.712Z,33.70
2023-01-28T21:56:58.235Z,30.20
2023-01-28T21:59:30.016Z,26.90
2023-01-28T22:16:16.461Z,24.80
2023-01-28T22:18:46.847Z,28.10
2023-01-28T22:21:14.987Z,28.20
2023-01-28T22:23:42.804Z,28.00
2023-01-28T22:26:11.082Z,25.10
2023-01-28T22:28:39.415Z,24.80
2023-01-28T22:31:11.609Z,26.60
2023-01-28T22:33:39.856Z,26.70
2023-01-28T22:36:09.480Z,26.20
2023-01-28T22:38:39.260Z,30.40
2023-01-28T22:41:07.645Z,31.90
2023-01-28T22:43:35.596Z,30.80
2023-01-28T22:46:04.035Z,35.00
2023-01-28T22:48:32.143Z,32.10
2023-01-28T22:51:03.073Z,34.70
2023-01-28T22:53:31.316Z,35.50
2023-01-28T22:55:59.148Z,39.20
2023-01-28T22:58:31.651Z,40.00
2023-01-28T23:00:59.881Z,42.60
2023-01-28T23:03:27.816Z,44.80
2023-01-28T23:05:59.460Z,44.70
2023-01-28T23:08:27.818Z,46.80
2023-01-28T23:10:57.562Z,91.60
2023-01-28T23:13:25.797Z,95.70
2023-01-28T23:16:12.073Z,65.80
2023-01-28T23:18:58.699Z,50.60
2023-01-28T23:21:46.186Z,45.20
2023-01-28T23:24:24.727Z,43.70
2023-01-28T23:26:53.918Z,39.50
2023-01-28T23:29:24.250Z,41.90
2023-01-28T23:31:54.287Z,43.10
2023-01-28T23:34:22.135Z,43.70
2023-01-28T23:36:52.205Z,48.80
2023-01-28T23:39:20.079Z,46.30
2023-01-28T23:41:47.897Z,52.10
2023-01-28T23:44:18.269Z,69.00
2023-01-28T23:46:46.264Z,60.70
2023-01-28T23:49:14.120Z,62.70
2023-01-28T23:51:42.400Z,65.60
2023-01-28T23:54:10.184Z,60.60
2023-01-28T23:56:39.271Z,64.40
2023-01-28T23:59:07.252Z,59.20
